Stewiacke, Canada
Current Conditions -  °F | °C
As of 11:00 PM on Monday 22 Dec 2014 (Local Time) from CYHZ Reporting Station
Light Snow Light Snow  
Wind Chill: 27°   Ceiling: 2000
Heat Index: 27°   Visibility: 15mi
Dew Point: 23°   Wind: 3mph
Humidity: 86%   Direction: 60°ENE
Pressure: 30.45"   Gusts: NA
Location:  45.13°N, 63.35°W
Report Text: CYHZ 230300Z 06003KT 15SM -SN OVC020 M03/M05 A3045 RMK SC8 SLP318
Loading
Personal Weather Stations






























Interactive Weather Map New forecast layout! Learn more

10-Day Weather Forecast

Advertisements
Track Severe Weather on mobile